createdAt,value
2024-02-12T00:00:34.953Z,2.75
2024-02-12T00:03:21.325Z,2.28
2024-02-12T00:05:53.377Z,2.35
2024-02-12T00:08:27.970Z,2.10
2024-02-12T00:11:02.949Z,3.72
2024-02-12T00:13:40.971Z,2.55
2024-02-12T00:16:17.942Z,2.25
2024-02-12T00:18:52.774Z,3.08
2024-02-12T00:21:24.251Z,3.08
2024-02-12T00:23:58.696Z,2.67
2024-02-12T00:26:29.967Z,3.38
2024-02-12T00:29:07.579Z,4.13
2024-02-12T00:31:40.556Z,2.63
2024-02-12T00:34:14.847Z,2.72
2024-02-12T00:36:47.296Z,3.42
2024-02-12T00:39:19.923Z,3.00
2024-02-12T00:41:55.469Z,2.83
2024-02-12T00:44:29.628Z,2.30
2024-02-12T00:47:05.239Z,2.80
2024-02-12T00:49:36.745Z,2.00
2024-02-12T00:52:09.872Z,2.85
2024-02-12T00:54:42.873Z,2.63
2024-02-12T00:57:15.253Z,2.90
2024-02-12T00:59:51.971Z,4.10
2024-02-12T01:02:24.496Z,3.20
2024-02-12T01:05:01.553Z,3.25
2024-02-12T01:07:35.340Z,3.20
2024-02-12T01:10:08.244Z,2.50
2024-02-12T01:12:47.664Z,2.72
2024-02-12T01:15:28.174Z,3.70
2024-02-12T01:18:26.545Z,2.97
2024-02-12T01:20:58.870Z,2.83
2024-02-12T01:23:31.997Z,3.10
2024-02-12T01:26:06.312Z,2.88
2024-02-12T01:28:40.302Z,2.95
2024-02-12T01:31:24.038Z,2.63
2024-02-12T01:33:58.445Z,3.17
2024-02-12T01:36:38.464Z,2.75
2024-02-12T01:39:13.244Z,2.78
2024-02-12T01:41:49.738Z,3.00
2024-02-12T01:44:25.505Z,2.83
2024-02-12T01:47:24.656Z,3.05
2024-02-12T01:50:09.118Z,2.97
2024-02-12T01:52:51.156Z,2.42
2024-02-12T01:55:25.396Z,2.83
2024-02-12T02:00:31.361Z,2.45
2024-02-12T02:03:19.163Z,2.10
2024-02-12T02:05:59.011Z,2.75
2024-02-12T02:08:46.746Z,2.30
2024-02-12T02:11:21.729Z,2.58
2024-02-12T02:14:00.426Z,2.40
2024-02-12T02:16:45.118Z,2.67
2024-02-12T02:19:25.136Z,2.55
2024-02-12T02:24:37.243Z,2.08
2024-02-12T02:27:09.297Z,2.08
2024-02-12T02:29:44.964Z,3.17
2024-02-12T02:32:18.709Z,2.67
2024-02-12T02:37:22.965Z,2.80
2024-02-12T02:40:03.029Z,2.20
2024-02-12T02:42:35.832Z,2.42
2024-02-12T02:45:08.278Z,2.53
2024-02-12T02:48:04.679Z,2.63
2024-02-12T02:50:38.791Z,2.35
2024-02-12T02:53:10.576Z,2.85
2024-02-12T02:55:48.462Z,2.05
2024-02-12T02:58:24.379Z,2.65
2024-02-12T03:00:59.508Z,2.15
2024-02-12T03:03:30.820Z,2.55
2024-02-12T03:06:07.860Z,2.25
2024-02-12T03:08:41.919Z,2.40
2024-02-12T03:11:24.341Z,2.70
2024-02-12T03:14:01.965Z,2.80
2024-02-12T03:16:34.641Z,2.20
2024-02-12T03:19:06.795Z,2.60
2024-02-12T03:21:42.764Z,2.20
2024-02-12T03:24:14.976Z,2.42
2024-02-12T03:26:52.373Z,2.75
2024-02-12T03:29:27.002Z,2.88
2024-02-12T03:32:05.546Z,2.38
2024-02-12T03:34:37.639Z,3.05
2024-02-12T03:37:09.621Z,2.47
2024-02-12T03:39:40.883Z,3.20
2024-02-12T03:42:15.063Z,2.53
2024-02-12T03:44:46.835Z,2.75
2024-02-12T03:47:20.063Z,3.28
2024-02-12T03:50:03.852Z,2.33
2024-02-12T03:52:48.212Z,2.58
2024-02-12T03:55:32.168Z,2.70
2024-02-12T03:58:18.661Z,2.58
2024-02-12T04:00:50.329Z,2.28
2024-02-12T04:03:24.616Z,2.55
2024-02-12T04:06:02.272Z,3.25
2024-02-12T04:08:37.011Z,3.00
2024-02-12T04:11:12.293Z,2.40
2024-02-12T04:13:48.096Z,2.88
2024-02-12T04:16:20.095Z,2.58
2024-02-12T04:18:55.227Z,2.60
2024-02-12T04:21:26.497Z,2.45
2024-02-12T04:23:59.368Z,3.03
2024-02-12T04:26:30.906Z,2.20
2024-02-12T04:29:08.014Z,3.13
2024-02-12T04:31:39.807Z,3.00
2024-02-12T04:34:15.111Z,2.58
2024-02-12T04:36:46.589Z,3.00
2024-02-12T04:39:18.528Z,3.55
2024-02-12T04:41:52.962Z,2.83
2024-02-12T04:44:27.106Z,2.20
2024-02-12T04:46:59.855Z,3.45
2024-02-12T04:49:32.022Z,2.63
2024-02-12T04:52:03.857Z,2.47
2024-02-12T04:54:35.763Z,3.42
2024-02-12T04:57:07.488Z,3.38
2024-02-12T04:59:42.091Z,2.80
2024-02-12T05:02:13.960Z,3.08
2024-02-12T05:04:46.682Z,2.92
2024-02-12T05:07:18.389Z,3.70
2024-02-12T05:09:51.026Z,2.40
2024-02-12T05:12:34.250Z,2.63
2024-02-12T05:15:13.722Z,2.88
2024-02-12T05:17:56.924Z,3.38
2024-02-12T05:20:40.732Z,2.95
2024-02-12T05:23:17.052Z,2.53
2024-02-12T05:25:53.562Z,3.05
2024-02-12T05:28:30.798Z,2.88
2024-02-12T05:31:05.281Z,3.42
2024-02-12T05:33:37.264Z,3.10
2024-02-12T05:36:15.703Z,3.08
2024-02-12T05:38:49.476Z,3.03
2024-02-12T05:41:22.843Z,2.47
2024-02-12T05:43:57.972Z,3.10
2024-02-12T05:46:34.680Z,2.90
2024-02-12T05:49:11.751Z,3.80
2024-02-12T05:51:44.930Z,2.92
2024-02-12T05:54:27.106Z,3.03
2024-02-12T05:56:59.226Z,2.50
2024-02-12T05:59:34.752Z,3.85
2024-02-12T06:02:14.175Z,3.33
2024-02-12T06:04:46.490Z,3.40
2024-02-12T06:07:18.527Z,3.38
2024-02-12T06:09:50.296Z,3.42
2024-02-12T06:12:24.502Z,2.83
2024-02-12T06:14:56.537Z,3.30
2024-02-12T06:17:32.759Z,3.25
2024-02-12T06:20:09.950Z,2.63
2024-02-12T06:22:45.449Z,3.15
2024-02-12T06:25:22.388Z,3.00
2024-02-12T06:30:36.397Z,2.42
2024-02-12T06:33:19.744Z,2.80
2024-02-12T06:35:58.557Z,3.10
2024-02-12T06:38:33.330Z,2.95
2024-02-12T06:41:09.466Z,4.65
2024-02-12T06:43:44.091Z,3.28
2024-02-12T06:46:15.563Z,2.83
2024-02-12T06:48:53.717Z,2.90
2024-02-12T06:51:25.716Z,2.63
2024-02-12T06:54:06.779Z,3.13
2024-02-12T06:56:43.590Z,3.15
2024-02-12T06:59:15.933Z,3.05
2024-02-12T07:01:50.537Z,3.20
2024-02-12T07:04:27.726Z,3.63
2024-02-12T07:07:01.392Z,3.08
2024-02-12T07:09:36.693Z,3.22
2024-02-12T07:12:11.892Z,2.45
2024-02-12T07:14:44.758Z,2.50
2024-02-12T07:17:20.419Z,2.78
2024-02-12T07:20:02.487Z,2.50
2024-02-12T07:22:36.460Z,3.13
2024-02-12T07:25:17.028Z,3.22
2024-02-12T07:27:56.202Z,3.38
2024-02-12T07:30:31.845Z,2.60
2024-02-12T07:33:05.842Z,3.60
2024-02-12T07:35:40.648Z,2.72
2024-02-12T07:38:12.658Z,3.17
2024-02-12T07:40:45.393Z,2.83
2024-02-12T07:43:16.924Z,2.50
2024-02-12T07:45:48.474Z,2.53
2024-02-12T07:48:21.660Z,2.75
2024-02-12T07:51:00.350Z,2.17
2024-02-12T07:53:32.384Z,3.05
2024-02-12T07:56:06.677Z,2.70
2024-02-12T07:58:40.762Z,4.85
2024-02-12T08:01:14.380Z,2.42
2024-02-12T08:03:46.581Z,2.65
2024-02-12T08:06:26.461Z,2.97
2024-02-12T08:08:58.255Z,1.80
2024-02-12T08:11:32.571Z,2.80
2024-02-12T08:14:13.652Z,2.13
2024-02-12T08:16:51.799Z,2.22
2024-02-12T08:19:41.151Z,2.78
2024-02-12T08:22:17.068Z,2.80
2024-02-12T08:24:55.668Z,2.40
2024-02-12T08:27:29.295Z,2.63
2024-02-12T08:30:08.716Z,2.85
2024-02-12T08:32:42.421Z,3.75
2024-02-12T08:38:02.513Z,2.65
2024-02-12T08:40:40.584Z,3.13
2024-02-12T08:43:12.223Z,3.90
2024-02-12T08:45:46.350Z,4.20
2024-02-12T08:48:23.402Z,2.92
2024-02-12T08:51:05.803Z,2.85
2024-02-12T08:53:45.786Z,3.88
2024-02-12T08:56:37.541Z,2.92
2024-02-12T08:59:12.457Z,4.25
2024-02-12T09:01:44.910Z,2.63
2024-02-12T09:04:21.508Z,2.33
2024-02-12T09:06:53.003Z,3.20
2024-02-12T09:09:27.965Z,3.15
2024-02-12T09:12:02.823Z,3.55
2024-02-12T09:14:36.883Z,2.10
2024-02-12T09:17:13.522Z,2.83
2024-02-12T09:19:46.407Z,3.30
2024-02-12T09:22:18.244Z,2.33
2024-02-12T09:24:58.718Z,2.80
2024-02-12T09:27:32.851Z,2.60
2024-02-12T09:30:08.353Z,2.80
2024-02-12T09:32:46.035Z,2.58
2024-02-12T09:35:20.716Z,2.67
2024-02-12T09:38:01.374Z,2.03
2024-02-12T09:40:47.673Z,2.35
2024-02-12T09:43:30.169Z,2.42
2024-02-12T09:46:09.087Z,2.55
2024-02-12T09:48:41.608Z,2.60
2024-02-12T09:51:15.691Z,3.10
2024-02-12T09:53:57.263Z,2.63
2024-02-12T09:56:33.295Z,2.92
2024-02-12T09:59:04.757Z,2.70
2024-02-12T10:01:38.313Z,2.60
2024-02-12T10:04:31.123Z,2.10
2024-02-12T10:07:23.605Z,2.40
2024-02-12T10:10:21.770Z,2.28
2024-02-12T10:13:16.576Z,2.00
2024-02-12T10:16:08.862Z,1.90
2024-02-12T10:19:02.454Z,2.03
2024-02-12T10:21:56.929Z,2.67
2024-02-12T10:24:50.398Z,2.35
2024-02-12T10:30:37.499Z,1.70
2024-02-12T10:33:30.549Z,1.40
2024-02-12T10:36:25.582Z,1.50
2024-02-12T10:39:26.134Z,1.00
2024-02-12T10:42:25.086Z,1.33
2024-02-12T10:45:20.939Z,1.58
2024-02-12T10:48:22.847Z,1.00
2024-02-12T10:51:15.443Z,1.45
2024-02-12T10:54:10.044Z,1.20
2024-02-12T10:56:45.695Z,0.80
2024-02-12T10:59:18.421Z,0.90
2024-02-12T11:01:57.803Z,1.30
2024-02-12T11:04:36.978Z,0.90
2024-02-12T11:07:13.050Z,1.10
2024-02-12T11:09:46.754Z,1.00
2024-02-12T11:12:47.085Z,1.08
2024-02-12T11:15:43.128Z,0.95
2024-02-12T11:21:18.382Z,0.93
2024-02-12T11:23:53.643Z,0.77
2024-02-12T11:26:27.232Z,1.15
2024-02-12T11:29:11.098Z,1.25
2024-02-12T11:31:49.258Z,0.63
2024-02-12T11:34:25.770Z,0.52
2024-02-12T11:37:08.578Z,0.60
2024-02-12T11:39:41.099Z,1.05
2024-02-12T11:42:25.272Z,1.20
2024-02-12T11:45:05.768Z,0.88
2024-02-12T11:47:45.462Z,0.90
2024-02-12T11:50:30.608Z,0.70
2024-02-12T11:54:01.613Z,0.70
2024-02-12T11:56:38.334Z,0.50
2024-02-12T11:59:12.072Z,0.80
2024-02-12T12:01:46.484Z,0.68
2024-02-12T12:04:18.134Z,0.73
2024-02-12T12:06:52.317Z,0.85
2024-02-12T12:09:26.793Z,1.23
2024-02-12T12:12:00.059Z,1.13
2024-02-12T12:14:41.109Z,0.90
2024-02-12T12:17:30.263Z,0.68
2024-02-12T12:20:17.748Z,1.13
2024-02-12T12:22:58.255Z,1.00
2024-02-12T12:25:38.137Z,1.00
2024-02-12T12:28:23.739Z,1.17
2024-02-12T12:30:58.400Z,1.15
2024-02-12T12:33:33.480Z,1.40
2024-02-12T12:36:13.591Z,1.17
2024-02-12T12:38:53.897Z,1.38
2024-02-12T12:41:30.977Z,1.38
2024-02-12T12:44:12.102Z,1.25
2024-02-12T12:46:44.201Z,1.33
2024-02-12T12:49:23.869Z,1.80
2024-02-12T12:51:59.304Z,1.55
2024-02-12T12:54:37.238Z,1.55
2024-02-12T12:57:14.867Z,1.90
2024-02-12T12:59:51.755Z,1.10
2024-02-12T13:02:28.068Z,1.42
2024-02-12T13:05:07.268Z,0.93
2024-02-12T13:08:17.478Z,1.13
2024-02-12T13:10:53.651Z,0.77
2024-02-12T13:13:37.188Z,1.30
2024-02-12T13:16:14.835Z,1.02
2024-02-12T13:18:49.452Z,1.70
2024-02-12T13:21:40.253Z,1.40
2024-02-12T13:24:17.503Z,1.33
2024-02-12T13:26:52.748Z,1.00
2024-02-12T13:29:28.550Z,0.70
2024-02-12T13:32:08.459Z,0.57
2024-02-12T13:34:40.602Z,1.17
2024-02-12T13:37:14.105Z,0.60
2024-02-12T13:39:48.354Z,0.85
2024-02-12T13:42:27.289Z,1.10
2024-02-12T13:45:04.663Z,0.90
2024-02-12T13:47:46.572Z,1.33
2024-02-12T13:50:18.703Z,0.75
2024-02-12T13:52:50.524Z,0.90
2024-02-12T13:55:22.908Z,1.17
2024-02-12T13:57:54.921Z,0.80
2024-02-12T14:00:47.513Z,1.48
2024-02-12T14:03:21.229Z,1.17
2024-02-12T14:05:56.625Z,1.85
2024-02-12T14:08:31.564Z,1.70
2024-02-12T14:11:03.248Z,7.00
2024-02-12T14:13:34.975Z,1.75
2024-02-12T14:16:11.299Z,1.35
2024-02-12T14:18:44.264Z,2.10
2024-02-12T14:21:17.368Z,1.45
2024-02-12T14:23:49.536Z,1.80
2024-02-12T14:26:23.210Z,3.25
2024-02-12T14:28:55.698Z,1.77
2024-02-12T14:31:34.354Z,1.80
2024-02-12T14:34:27.594Z,1.40
2024-02-12T14:36:59.563Z,1.70
2024-02-12T14:39:30.993Z,1.70
2024-02-12T14:42:02.303Z,1.67
2024-02-12T14:44:36.485Z,1.80
2024-02-12T14:47:12.260Z,2.20
2024-02-12T14:49:46.329Z,1.33
2024-02-12T14:52:20.750Z,1.52
2024-02-12T14:54:52.620Z,5.18
2024-02-12T14:57:24.229Z,1.70
2024-02-12T14:59:58.100Z,2.38
2024-02-12T15:02:32.518Z,1.95
2024-02-12T15:05:07.791Z,1.73
2024-02-12T15:07:39.599Z,3.40
2024-02-12T15:10:12.834Z,2.28
2024-02-12T15:12:48.415Z,3.08
2024-02-12T15:15:21.024Z,3.40
2024-02-12T15:17:56.961Z,3.50
2024-02-12T15:20:37.459Z,3.38
2024-02-12T15:25:45.591Z,2.72
2024-02-12T15:28:18.492Z,3.00
2024-02-12T15:30:53.650Z,3.25
2024-02-12T15:33:49.202Z,3.90
2024-02-12T15:36:21.752Z,1.98
2024-02-12T15:38:53.617Z,3.40
2024-02-12T15:41:28.862Z,2.95
2024-02-12T15:44:38.361Z,4.00
2024-02-12T15:47:15.979Z,3.92
2024-02-12T15:49:51.321Z,3.40
2024-02-12T15:52:24.732Z,2.75
2024-02-12T15:54:57.998Z,2.90
2024-02-12T15:57:46.515Z,2.55
2024-02-12T16:00:24.693Z,2.35
2024-02-12T16:03:03.659Z,2.67
2024-02-12T16:06:07.485Z,2.92
2024-02-12T16:08:53.906Z,4.28
2024-02-12T16:11:28.758Z,5.07
2024-02-12T16:14:04.954Z,6.25
2024-02-12T16:16:37.052Z,4.10
2024-02-12T16:19:17.948Z,2.83
2024-02-12T16:21:49.384Z,3.30
2024-02-12T16:24:23.569Z,4.90
2024-02-12T16:26:55.042Z,3.30
2024-02-12T16:29:27.826Z,2.40
2024-02-12T16:31:59.235Z,2.45
2024-02-12T16:34:32.341Z,3.20
2024-02-12T16:37:05.699Z,4.38
2024-02-12T16:39:42.236Z,2.40
2024-02-12T16:42:14.577Z,2.28
2024-02-12T16:44:46.170Z,2.63
2024-02-12T16:47:19.117Z,1.80
2024-02-12T16:49:52.309Z,2.30
2024-02-12T16:52:23.902Z,2.75
2024-02-12T16:54:57.837Z,2.70
2024-02-12T16:57:53.278Z,4.43
2024-02-12T17:00:29.753Z,4.57
2024-02-12T17:03:12.068Z,5.05
2024-02-12T17:05:44.534Z,5.95
2024-02-12T17:08:19.183Z,5.85
2024-02-12T17:10:53.329Z,3.08
2024-02-12T17:13:31.488Z,3.17
2024-02-12T17:16:03.833Z,1.80
2024-02-12T17:18:36.045Z,2.28
2024-02-12T17:21:07.590Z,1.67
2024-02-12T17:23:39.499Z,2.25
2024-02-12T17:26:14.832Z,3.85
2024-02-12T17:28:46.886Z,6.75
2024-02-12T17:31:19.628Z,4.85
2024-02-12T17:33:57.531Z,7.22
2024-02-12T17:36:32.177Z,5.53
2024-02-12T17:39:03.814Z,5.40
2024-02-12T17:41:38.184Z,4.60
2024-02-12T17:44:15.221Z,5.35
2024-02-12T17:46:52.152Z,6.32
2024-02-12T17:49:23.830Z,4.78
2024-02-12T17:51:55.756Z,4.10
2024-02-12T17:54:29.456Z,5.53
2024-02-12T17:57:05.295Z,4.32
2024-02-12T17:59:40.507Z,3.83
2024-02-12T18:02:16.278Z,6.60
2024-02-12T18:04:47.953Z,3.92
2024-02-12T18:07:19.536Z,5.05
2024-02-12T18:09:52.621Z,8.95
2024-02-12T18:12:28.725Z,9.73
2024-02-12T18:15:01.719Z,12.60
2024-02-12T18:17:37.278Z,12.07
2024-02-12T18:20:10.134Z,6.13
2024-02-12T18:22:41.846Z,3.25
2024-02-12T18:25:16.310Z,2.35
2024-02-12T18:27:57.602Z,3.58
2024-02-12T18:33:03.937Z,11.57
2024-02-12T18:35:38.272Z,7.80
2024-02-12T18:38:13.355Z,3.83
2024-02-12T18:40:45.403Z,3.47
2024-02-12T18:43:19.925Z,4.57
2024-02-12T18:45:53.416Z,3.97
2024-02-12T18:48:26.349Z,3.88
2024-02-12T18:50:57.964Z,3.70
2024-02-12T18:53:29.398Z,3.30
2024-02-12T18:56:01.407Z,2.55
2024-02-12T18:58:36.773Z,2.22
2024-02-12T19:01:12.612Z,2.33
2024-02-12T19:03:47.788Z,2.78
2024-02-12T19:06:19.839Z,2.40
2024-02-12T19:08:54.429Z,2.30
2024-02-12T19:11:26.620Z,2.40
2024-02-12T19:14:06.628Z,2.13
2024-02-12T19:16:39.219Z,4.57
2024-02-12T19:19:11.592Z,3.80
2024-02-12T19:21:46.147Z,2.90
2024-02-12T19:24:23.753Z,2.30
2024-02-12T19:26:57.655Z,3.08
2024-02-12T19:29:31.581Z,2.90
2024-02-12T19:32:05.007Z,3.08
2024-02-12T19:34:37.909Z,2.65
2024-02-12T19:37:12.012Z,2.30
2024-02-12T19:39:50.556Z,2.40
2024-02-12T19:42:24.253Z,2.72
2024-02-12T19:44:58.320Z,2.25
2024-02-12T19:47:32.981Z,2.30
2024-02-12T19:50:04.662Z,1.80
2024-02-12T19:52:36.180Z,2.55
2024-02-12T19:55:09.517Z,2.45
2024-02-12T19:57:42.696Z,1.58
2024-02-12T20:00:18.920Z,1.80
2024-02-12T20:02:52.940Z,1.50
2024-02-12T20:05:24.748Z,1.77
2024-02-12T20:07:57.118Z,1.80
2024-02-12T20:10:28.821Z,2.45
2024-02-12T20:13:00.498Z,2.08
2024-02-12T20:15:35.410Z,2.80
2024-02-12T20:18:08.043Z,2.50
2024-02-12T20:20:42.090Z,1.80
2024-02-12T20:23:15.577Z,1.67
2024-02-12T20:25:48.224Z,1.92
2024-02-12T20:28:42.084Z,1.63
2024-02-12T20:31:19.308Z,1.98
2024-02-12T20:33:53.874Z,2.33
2024-02-12T20:36:27.699Z,3.85
2024-02-12T20:41:32.150Z,3.17
2024-02-12T20:44:03.674Z,1.83
2024-02-12T20:46:37.678Z,1.50
2024-02-12T20:51:40.173Z,1.65
2024-02-12T20:54:11.452Z,1.65
2024-02-12T20:56:43.794Z,1.60
2024-02-12T20:59:15.009Z,1.63
2024-02-12T21:01:49.060Z,1.80
2024-02-12T21:04:20.578Z,7.43
2024-02-12T21:06:51.936Z,3.95
2024-02-12T21:09:23.115Z,19.00
2024-02-12T21:11:54.595Z,10.43
2024-02-12T21:14:26.343Z,10.38
2024-02-12T21:17:05.911Z,13.40
2024-02-12T21:19:37.115Z,13.60
2024-02-12T21:22:12.595Z,18.58
2024-02-12T21:24:46.309Z,8.18
2024-02-12T21:27:17.713Z,15.15
2024-02-12T21:29:52.672Z,10.73
2024-02-12T21:32:30.660Z,6.85
2024-02-12T21:35:03.415Z,12.50
2024-02-12T21:37:35.851Z,7.97
2024-02-12T21:40:09.842Z,4.15
2024-02-12T21:45:13.107Z,5.72
2024-02-12T21:47:48.930Z,4.50
2024-02-12T21:50:23.934Z,3.53
2024-02-12T21:53:02.977Z,2.67
2024-02-12T21:55:34.416Z,4.82
2024-02-12T21:58:12.627Z,3.25
2024-02-12T22:00:45.869Z,4.13
2024-02-12T22:03:21.240Z,3.60
2024-02-12T22:05:57.618Z,4.57
2024-02-12T22:08:29.457Z,5.60
2024-02-12T22:11:01.787Z,4.65
2024-02-12T22:13:33.505Z,4.97
2024-02-12T22:16:07.362Z,5.07
2024-02-12T22:18:41.951Z,5.15
2024-02-12T22:21:13.673Z,5.18
2024-02-12T22:23:46.101Z,5.65
2024-02-12T22:26:17.905Z,3.63
2024-02-12T22:28:50.664Z,3.70
2024-02-12T22:31:25.933Z,3.95
2024-02-12T22:34:05.104Z,4.93
2024-02-12T22:36:37.173Z,5.75
2024-02-12T22:39:09.831Z,4.70
2024-02-12T22:41:44.740Z,5.45
2024-02-12T22:44:16.834Z,4.85
2024-02-12T22:46:48.577Z,4.88
2024-02-12T22:49:23.139Z,5.38
2024-02-12T22:51:56.473Z,5.07
2024-02-12T22:54:28.031Z,9.30
2024-02-12T22:56:59.786Z,5.20
2024-02-12T22:59:32.564Z,4.20
2024-02-12T23:02:05.607Z,4.18
2024-02-12T23:04:41.704Z,4.05
2024-02-12T23:07:14.046Z,4.72
2024-02-12T23:09:48.077Z,4.25
2024-02-12T23:14:51.231Z,3.60
2024-02-12T23:17:25.960Z,5.32
2024-02-12T23:20:01.428Z,3.63
2024-02-12T23:22:33.224Z,2.25
2024-02-12T23:25:04.666Z,1.88
2024-02-12T23:27:37.104Z,1.73
2024-02-12T23:30:10.340Z,4.30
2024-02-12T23:32:45.654Z,3.88
2024-02-12T23:35:20.046Z,2.85
2024-02-12T23:37:52.475Z,2.30
2024-02-12T23:40:24.121Z,2.72
2024-02-12T23:42:55.316Z,2.35
2024-02-12T23:45:27.994Z,2.40
2024-02-12T23:48:20.602Z,1.90
2024-02-12T23:50:54.888Z,2.35
2024-02-12T23:53:28.041Z,1.70
2024-02-12T23:55:59.685Z,4.00
2024-02-12T23:58:35.917Z,4.68
